createdAt,value
2024-01-26T00:01:23.644Z,4.67
2024-01-26T00:03:52.462Z,4.77
2024-01-26T00:06:19.880Z,4.44
2024-01-26T00:08:46.908Z,4.64
2024-01-26T00:11:17.768Z,4.56
2024-01-26T00:13:44.694Z,4.54
2024-01-26T00:16:11.670Z,4.45
2024-01-26T00:18:40.441Z,4.50
2024-01-26T00:21:08.363Z,4.43
2024-01-26T00:23:36.826Z,4.38
2024-01-26T00:26:03.921Z,4.28
2024-01-26T00:28:30.896Z,4.35
2024-01-26T00:30:57.886Z,4.54
2024-01-26T00:33:25.005Z,4.52
2024-01-26T00:35:52.046Z,4.63
2024-01-26T00:38:19.022Z,4.62
2024-01-26T00:40:46.026Z,4.66
2024-01-26T00:43:12.990Z,4.52
2024-01-26T00:45:40.369Z,4.17
2024-01-26T00:48:07.943Z,4.10
2024-01-26T00:50:35.522Z,4.16
2024-01-26T00:53:03.232Z,4.19
2024-01-26T00:55:30.768Z,4.32
2024-01-26T00:57:58.185Z,4.34
2024-01-26T01:00:26.010Z,4.28
2024-01-26T01:02:54.856Z,4.13
2024-01-26T01:05:22.018Z,4.00
2024-01-26T01:07:49.198Z,4.09
2024-01-26T01:10:16.942Z,3.81
2024-01-26T01:12:44.805Z,3.73
2024-01-26T01:15:15.045Z,3.80
2024-01-26T01:17:47.043Z,3.87
2024-01-26T01:20:15.214Z,3.92
2024-01-26T01:22:43.218Z,4.04
2024-01-26T01:25:13.289Z,4.11
2024-01-26T01:27:40.522Z,4.02
2024-01-26T01:30:09.170Z,3.94
2024-01-26T01:32:36.661Z,3.85
2024-01-26T01:35:04.122Z,3.89
2024-01-26T01:37:31.031Z,4.09
2024-01-26T01:39:57.994Z,3.86
2024-01-26T01:42:25.058Z,3.93
2024-01-26T01:44:52.419Z,3.96
2024-01-26T01:47:19.476Z,3.97
2024-01-26T01:49:47.432Z,3.95
2024-01-26T01:52:18.979Z,3.75
2024-01-26T01:54:46.063Z,3.59
2024-01-26T01:57:14.045Z,3.50
2024-01-26T01:59:42.856Z,3.62
2024-01-26T02:02:10.583Z,3.59
2024-01-26T02:04:37.570Z,3.61
2024-01-26T02:07:05.448Z,3.52
2024-01-26T02:09:32.727Z,3.89
2024-01-26T02:12:01.217Z,3.93
2024-01-26T02:14:28.311Z,3.71
2024-01-26T02:16:57.304Z,3.57
2024-01-26T02:19:26.360Z,3.66
2024-01-26T02:21:54.154Z,3.67
2024-01-26T02:24:21.358Z,3.64
2024-01-26T02:26:48.368Z,3.75
2024-01-26T02:29:15.423Z,3.74
2024-01-26T02:31:42.544Z,4.01
2024-01-26T02:34:12.594Z,3.97
2024-01-26T02:36:40.289Z,4.00
2024-01-26T02:39:07.463Z,4.12
2024-01-26T02:41:36.181Z,4.00
2024-01-26T02:44:03.816Z,4.14
2024-01-26T02:46:30.761Z,4.02
2024-01-26T02:48:57.910Z,4.05
2024-01-26T02:51:24.974Z,3.89
2024-01-26T02:53:51.991Z,4.06
2024-01-26T02:56:18.969Z,3.95
2024-01-26T02:58:45.866Z,4.03
2024-01-26T03:01:12.912Z,3.86
2024-01-26T03:03:39.906Z,3.92
2024-01-26T03:06:07.688Z,3.92
2024-01-26T03:08:34.612Z,3.91
2024-01-26T03:11:01.526Z,3.87
2024-01-26T03:13:28.433Z,3.89
2024-01-26T03:15:55.394Z,3.86
2024-01-26T03:18:22.862Z,3.97
2024-01-26T03:20:49.955Z,3.94
2024-01-26T03:23:16.948Z,3.95
2024-01-26T03:25:43.883Z,3.92
2024-01-26T03:28:12.714Z,3.97
2024-01-26T03:30:39.880Z,3.99
2024-01-26T03:33:08.537Z,4.14
2024-01-26T03:35:35.490Z,4.25
2024-01-26T03:38:03.703Z,4.22
2024-01-26T03:40:30.657Z,4.11
2024-01-26T03:42:57.779Z,4.14
2024-01-26T03:45:24.628Z,3.96
2024-01-26T03:47:51.744Z,4.04
2024-01-26T03:50:19.979Z,4.12
2024-01-26T03:52:47.056Z,3.96
2024-01-26T03:55:14.048Z,4.14
2024-01-26T03:57:42.989Z,4.01
2024-01-26T04:00:11.639Z,3.82
2024-01-26T04:02:41.606Z,4.02
2024-01-26T04:05:10.243Z,4.03
2024-01-26T04:07:37.164Z,4.15
2024-01-26T04:10:04.346Z,4.19
2024-01-26T04:12:31.335Z,4.32
2024-01-26T04:14:58.323Z,4.18
2024-01-26T04:17:25.190Z,4.22
2024-01-26T04:19:52.258Z,4.23
2024-01-26T04:22:19.234Z,4.27
2024-01-26T04:24:46.126Z,4.31
2024-01-26T04:27:13.051Z,4.32
2024-01-26T04:29:40.183Z,4.38
2024-01-26T04:32:07.486Z,4.45
2024-01-26T04:34:39.140Z,4.47
2024-01-26T04:37:06.960Z,4.43
2024-01-26T04:39:33.984Z,4.36
2024-01-26T04:42:00.972Z,4.48
2024-01-26T04:44:27.940Z,4.41
2024-01-26T04:46:56.518Z,4.37
2024-01-26T04:49:23.605Z,4.24
2024-01-26T04:51:50.775Z,4.20
2024-01-26T04:54:17.670Z,4.24
2024-01-26T04:56:44.838Z,4.28
2024-01-26T04:59:12.039Z,4.17
2024-01-26T05:01:41.401Z,4.15
2024-01-26T05:04:08.441Z,4.16
2024-01-26T05:06:35.530Z,4.19
2024-01-26T05:09:02.784Z,4.18
2024-01-26T05:11:30.073Z,4.12
2024-01-26T05:13:57.058Z,4.19
2024-01-26T05:16:24.027Z,4.04
2024-01-26T05:18:50.960Z,4.02
2024-01-26T05:21:18.117Z,4.07
2024-01-26T05:23:45.161Z,4.03
2024-01-26T05:26:12.553Z,4.02
2024-01-26T05:28:40.514Z,3.87
2024-01-26T05:31:07.466Z,3.97
2024-01-26T05:33:34.519Z,4.00
2024-01-26T05:36:01.548Z,3.94
2024-01-26T05:38:29.414Z,3.97
2024-01-26T05:40:57.639Z,3.90
2024-01-26T05:43:24.583Z,3.89
2024-01-26T05:45:51.575Z,3.97
2024-01-26T05:48:18.848Z,4.05
2024-01-26T05:50:46.701Z,4.09
2024-01-26T05:53:13.856Z,3.98
2024-01-26T05:55:40.819Z,4.01
2024-01-26T05:58:07.931Z,4.01
2024-01-26T06:00:35.064Z,4.04
2024-01-26T06:03:02.496Z,4.13
2024-01-26T06:05:29.703Z,3.92
2024-01-26T06:07:57.496Z,3.98
2024-01-26T06:10:25.052Z,4.13
2024-01-26T06:12:52.226Z,4.21
2024-01-26T06:15:19.536Z,4.17
2024-01-26T06:17:48.666Z,4.24
2024-01-26T06:20:15.669Z,4.36
2024-01-26T06:22:43.151Z,4.37
2024-01-26T06:25:10.137Z,4.35
2024-01-26T06:27:38.715Z,4.28
2024-01-26T06:30:06.954Z,4.27
2024-01-26T06:32:34.201Z,4.38
2024-01-26T06:35:01.371Z,4.22
2024-01-26T06:37:29.494Z,4.22
2024-01-26T06:39:56.800Z,4.19
2024-01-26T06:42:27.051Z,4.10
2024-01-26T06:44:57.325Z,4.05
2024-01-26T06:47:24.519Z,4.09
2024-01-26T06:49:51.571Z,4.03
2024-01-26T06:52:18.843Z,4.06
2024-01-26T06:54:46.816Z,4.03
2024-01-26T06:57:14.165Z,4.02
2024-01-26T06:59:41.263Z,4.07
2024-01-26T07:02:08.385Z,4.15
2024-01-26T07:04:35.552Z,4.21
2024-01-26T07:07:02.693Z,4.15
2024-01-26T07:09:30.531Z,4.15
2024-01-26T07:11:59.667Z,4.18
2024-01-26T07:14:27.077Z,4.16
2024-01-26T07:16:54.240Z,4.33
2024-01-26T07:19:21.516Z,4.31
2024-01-26T07:21:48.793Z,4.35
2024-01-26T07:24:16.064Z,4.34
2024-01-26T07:26:43.478Z,4.36
2024-01-26T07:29:11.560Z,4.43
2024-01-26T07:31:38.639Z,4.46
2024-01-26T07:34:06.288Z,4.50
2024-01-26T07:36:38.077Z,4.47
2024-01-26T07:39:06.969Z,4.36
2024-01-26T07:41:35.127Z,4.42
2024-01-26T07:44:02.449Z,4.43
2024-01-26T07:46:29.540Z,4.41
2024-01-26T07:48:57.120Z,4.38
2024-01-26T07:51:24.276Z,4.41
2024-01-26T07:53:51.391Z,4.51
2024-01-26T07:56:18.354Z,4.56
2024-01-26T07:58:45.281Z,4.51
2024-01-26T08:01:15.920Z,4.47
2024-01-26T08:03:43.298Z,4.47
2024-01-26T08:06:11.025Z,4.45
2024-01-26T08:08:38.499Z,4.48
2024-01-26T08:11:06.758Z,4.50
2024-01-26T08:13:33.699Z,4.47
2024-01-26T08:16:00.695Z,4.43
2024-01-26T08:18:27.935Z,4.55
2024-01-26T08:20:54.984Z,4.59
2024-01-26T08:23:22.250Z,4.65
2024-01-26T08:25:49.692Z,4.71
2024-01-26T08:28:16.746Z,4.66
2024-01-26T08:30:43.786Z,4.71
2024-01-26T08:33:10.929Z,4.74
2024-01-26T08:35:38.363Z,4.64
2024-01-26T08:38:06.199Z,4.64
2024-01-26T08:40:33.122Z,4.74
2024-01-26T08:43:00.117Z,4.79
2024-01-26T08:45:27.241Z,4.80
2024-01-26T08:47:55.349Z,4.71
2024-01-26T08:50:22.353Z,4.74
2024-01-26T08:52:50.218Z,4.69
2024-01-26T08:55:17.666Z,4.65
2024-01-26T08:57:44.772Z,4.67
2024-01-26T09:00:14.299Z,4.64
2024-01-26T09:02:41.644Z,4.67
2024-01-26T09:05:10.795Z,4.83
2024-01-26T09:07:37.869Z,4.96
2024-01-26T09:10:06.875Z,4.91
2024-01-26T09:12:34.232Z,4.87
2024-01-26T09:15:01.382Z,4.79
2024-01-26T09:17:28.400Z,4.84
2024-01-26T09:19:55.645Z,4.97
2024-01-26T09:22:22.848Z,5.12
2024-01-26T09:24:49.980Z,5.05
2024-01-26T09:27:17.712Z,5.19
2024-01-26T09:29:44.833Z,5.30
2024-01-26T09:32:11.825Z,5.31
2024-01-26T09:34:39.258Z,5.40
2024-01-26T09:37:06.634Z,5.35
2024-01-26T09:39:33.921Z,5.32
2024-01-26T09:42:01.489Z,5.29
2024-01-26T09:44:28.524Z,5.20
2024-01-26T09:46:55.521Z,5.22
2024-01-26T09:49:23.219Z,5.24
2024-01-26T09:51:50.615Z,5.34
2024-01-26T09:54:21.125Z,5.54
2024-01-26T09:56:49.930Z,5.63
2024-01-26T09:59:16.965Z,5.48
2024-01-26T10:01:47.277Z,5.43
2024-01-26T10:04:15.087Z,5.47
2024-01-26T10:06:42.934Z,5.47
2024-01-26T10:09:11.505Z,5.39
2024-01-26T10:11:38.704Z,5.40
2024-01-26T10:14:05.904Z,5.55
2024-01-26T10:16:32.916Z,5.56
2024-01-26T10:19:00.362Z,5.86
2024-01-26T10:21:27.582Z,5.95
2024-01-26T10:23:54.761Z,6.00
2024-01-26T10:26:21.804Z,5.89
2024-01-26T10:28:49.798Z,5.86
2024-01-26T10:31:17.631Z,5.89
2024-01-26T10:33:46.972Z,5.89
2024-01-26T10:36:15.521Z,5.89
2024-01-26T10:38:44.269Z,5.81
2024-01-26T10:41:18.811Z,5.90
2024-01-26T10:43:46.695Z,5.93
2024-01-26T10:46:15.295Z,6.04
2024-01-26T10:48:43.734Z,5.98
2024-01-26T10:51:12.689Z,5.87
2024-01-26T10:53:46.630Z,5.84
2024-01-26T10:56:13.784Z,6.14
2024-01-26T10:58:41.185Z,6.33
2024-01-26T11:01:08.693Z,6.14
2024-01-26T11:03:35.793Z,6.27
2024-01-26T11:06:02.984Z,6.39
2024-01-26T11:08:31.981Z,6.43
2024-01-26T11:11:00.032Z,6.55
2024-01-26T11:13:27.552Z,6.62
2024-01-26T11:16:04.555Z,6.64
2024-01-26T11:18:36.422Z,6.57
2024-01-26T11:21:04.451Z,6.42
2024-01-26T11:23:45.858Z,6.34
2024-01-26T11:26:17.268Z,6.50
2024-01-26T11:28:46.738Z,6.60
2024-01-26T11:31:14.462Z,6.51
2024-01-26T11:33:42.112Z,6.48
2024-01-26T11:36:13.672Z,6.67
2024-01-26T11:38:42.329Z,6.70
2024-01-26T11:41:12.027Z,6.55
2024-01-26T11:43:45.303Z,6.59
2024-01-26T11:46:13.278Z,6.57
2024-01-26T11:48:42.187Z,6.52
2024-01-26T11:51:10.186Z,6.53
2024-01-26T11:53:37.538Z,6.67
2024-01-26T11:56:05.698Z,6.85
2024-01-26T11:58:33.789Z,6.98
2024-01-26T12:01:03.420Z,6.91
2024-01-26T12:03:31.405Z,6.89
2024-01-26T12:05:59.020Z,6.78
2024-01-26T12:08:26.420Z,6.78
2024-01-26T12:10:53.765Z,6.66
2024-01-26T12:13:21.803Z,6.61
2024-01-26T12:15:49.096Z,6.71
2024-01-26T12:18:17.602Z,6.58
2024-01-26T12:20:47.789Z,6.62
2024-01-26T12:23:22.198Z,6.63
2024-01-26T12:25:55.432Z,6.59
2024-01-26T12:28:28.677Z,6.57
2024-01-26T12:30:55.919Z,6.70
2024-01-26T12:33:24.376Z,6.78
2024-01-26T12:35:53.300Z,6.75
2024-01-26T12:38:20.801Z,6.98
2024-01-26T12:40:49.094Z,7.00
2024-01-26T12:43:17.155Z,7.09
2024-01-26T12:45:44.361Z,7.09
2024-01-26T12:48:11.980Z,7.16
2024-01-26T12:50:39.069Z,7.21
2024-01-26T12:53:06.363Z,6.99
2024-01-26T12:55:33.442Z,7.08
2024-01-26T12:58:00.677Z,7.04
2024-01-26T13:00:29.157Z,7.03
2024-01-26T13:03:05.512Z,7.01
2024-01-26T13:05:32.931Z,6.93
2024-01-26T13:08:00.180Z,7.16
2024-01-26T13:10:27.410Z,7.50
2024-01-26T13:12:54.388Z,7.62
2024-01-26T13:15:22.620Z,7.64
2024-01-26T13:17:51.081Z,7.49
2024-01-26T13:20:21.141Z,7.46
2024-01-26T13:22:49.834Z,7.36
2024-01-26T13:25:17.135Z,7.41
2024-01-26T13:27:44.562Z,7.66
2024-01-26T13:30:13.297Z,7.80
2024-01-26T13:32:40.688Z,7.81
2024-01-26T13:35:08.793Z,7.71
2024-01-26T13:37:36.891Z,7.73
2024-01-26T13:40:07.284Z,7.77
2024-01-26T13:42:35.217Z,7.86
2024-01-26T13:45:03.631Z,8.00
2024-01-26T13:47:30.716Z,7.96
2024-01-26T13:49:58.077Z,7.88
2024-01-26T13:52:25.239Z,7.90
2024-01-26T13:54:52.210Z,7.67
2024-01-26T13:57:19.321Z,7.68
2024-01-26T13:59:46.642Z,7.65
2024-01-26T14:02:13.711Z,7.69
2024-01-26T14:04:40.639Z,7.74
2024-01-26T14:07:07.992Z,7.78
2024-01-26T14:09:36.034Z,7.86
2024-01-26T14:12:05.021Z,7.97
2024-01-26T14:14:32.403Z,8.21
2024-01-26T14:16:59.410Z,8.73
2024-01-26T14:19:26.692Z,9.03
2024-01-26T14:21:55.559Z,9.52
2024-01-26T14:24:22.919Z,10.01
2024-01-26T14:26:49.921Z,10.13
2024-01-26T14:29:19.080Z,9.47
2024-01-26T14:31:47.549Z,8.58
2024-01-26T14:34:14.768Z,7.84
2024-01-26T14:36:44.236Z,7.11
2024-01-26T14:39:12.493Z,6.59
2024-01-26T14:41:39.766Z,6.43
2024-01-26T14:44:06.729Z,6.30
2024-01-26T14:46:35.082Z,6.17
2024-01-26T14:49:04.933Z,6.49
2024-01-26T14:51:31.949Z,7.53
2024-01-26T14:53:59.808Z,8.33
2024-01-26T14:56:26.905Z,8.36
2024-01-26T14:58:53.864Z,8.29
2024-01-26T15:01:20.819Z,8.42
2024-01-26T15:03:47.945Z,8.73
2024-01-26T15:06:15.024Z,8.68
2024-01-26T15:08:43.324Z,8.38
2024-01-26T15:11:10.315Z,7.94
2024-01-26T15:13:39.630Z,7.31
2024-01-26T15:16:08.447Z,6.59
2024-01-26T15:18:36.120Z,6.20
2024-01-26T15:21:03.586Z,5.96
2024-01-26T15:23:30.600Z,5.75
2024-01-26T15:25:57.527Z,5.59
2024-01-26T15:28:24.483Z,5.39
2024-01-26T15:30:51.574Z,5.29
2024-01-26T15:33:18.729Z,5.25
2024-01-26T15:35:45.920Z,5.16
2024-01-26T15:38:14.058Z,5.12
2024-01-26T15:40:41.010Z,5.05
2024-01-26T15:43:08.023Z,4.94
2024-01-26T15:45:35.663Z,4.86
2024-01-26T15:48:02.857Z,4.87
2024-01-26T15:50:29.933Z,4.83
2024-01-26T15:52:56.848Z,4.77
2024-01-26T15:55:23.963Z,4.78
2024-01-26T15:57:50.918Z,4.73
2024-01-26T16:00:18.539Z,4.64
2024-01-26T16:02:45.596Z,4.55
2024-01-26T16:05:13.256Z,4.54
2024-01-26T16:07:40.337Z,4.50
2024-01-26T16:10:08.520Z,4.48
2024-01-26T16:12:37.591Z,4.37
2024-01-26T16:15:07.465Z,4.22
2024-01-26T16:17:34.998Z,4.17
2024-01-26T16:20:02.162Z,4.10
2024-01-26T16:22:29.141Z,3.98
2024-01-26T16:24:56.111Z,3.96
2024-01-26T16:27:23.357Z,4.03
2024-01-26T16:29:50.534Z,4.03
2024-01-26T16:32:17.574Z,4.09
2024-01-26T16:34:44.498Z,4.10
2024-01-26T16:37:11.415Z,4.04
2024-01-26T16:39:39.943Z,4.10
2024-01-26T16:42:07.094Z,4.16
2024-01-26T16:44:34.015Z,4.06
2024-01-26T16:47:00.930Z,4.10
2024-01-26T16:49:28.841Z,4.02
2024-01-26T16:52:01.783Z,4.03
2024-01-26T16:54:30.250Z,3.98
2024-01-26T16:56:57.202Z,3.92
2024-01-26T16:59:24.238Z,3.90
2024-01-26T17:01:52.767Z,3.84
2024-01-26T17:04:21.207Z,3.95
2024-01-26T17:06:48.297Z,3.78
2024-01-26T17:09:15.539Z,3.70
2024-01-26T17:11:42.632Z,3.78
2024-01-26T17:14:09.625Z,3.78
2024-01-26T17:16:36.585Z,3.61
2024-01-26T17:19:03.572Z,3.33
2024-01-26T17:21:30.547Z,3.48
2024-01-26T17:23:57.592Z,3.38
2024-01-26T17:26:24.514Z,3.56
2024-01-26T17:28:51.560Z,3.63
2024-01-26T17:31:19.870Z,3.61
2024-01-26T17:33:48.138Z,3.71
2024-01-26T17:36:16.595Z,3.69
2024-01-26T17:38:43.687Z,3.52
2024-01-26T17:41:10.854Z,3.47
2024-01-26T17:43:37.863Z,3.73
2024-01-26T17:46:05.088Z,3.66
2024-01-26T17:48:32.948Z,3.61
2024-01-26T17:51:00.255Z,3.56
2024-01-26T17:53:27.272Z,3.46
2024-01-26T17:55:54.658Z,3.44
2024-01-26T17:58:21.687Z,3.37
2024-01-26T18:00:48.862Z,3.22
2024-01-26T18:03:15.974Z,3.40
2024-01-26T18:05:43.027Z,3.43
2024-01-26T18:08:10.106Z,3.25
2024-01-26T18:10:37.346Z,3.22
2024-01-26T18:13:04.535Z,3.35
2024-01-26T18:15:31.540Z,3.27
2024-01-26T18:17:58.635Z,3.30
2024-01-26T18:20:25.764Z,3.16
2024-01-26T18:22:53.538Z,3.32
2024-01-26T18:25:20.481Z,3.31
2024-01-26T18:27:47.565Z,3.31
2024-01-26T18:30:15.033Z,3.25
2024-01-26T18:32:42.201Z,3.24
2024-01-26T18:35:10.942Z,3.23
2024-01-26T18:37:38.554Z,3.34
2024-01-26T18:40:06.431Z,3.27
2024-01-26T18:42:33.329Z,3.28
2024-01-26T18:45:00.362Z,3.19
2024-01-26T18:47:27.297Z,3.04
2024-01-26T18:49:54.454Z,3.16
2024-01-26T18:52:23.387Z,3.07
2024-01-26T18:54:52.437Z,3.12
2024-01-26T18:57:19.643Z,3.10
2024-01-26T18:59:47.005Z,3.11
2024-01-26T19:02:15.324Z,2.79
2024-01-26T19:04:42.753Z,2.81
2024-01-26T19:07:09.961Z,2.71
2024-01-26T19:09:37.896Z,2.81
2024-01-26T19:12:07.421Z,2.74
2024-01-26T19:14:34.690Z,2.59
2024-01-26T19:17:01.695Z,2.52
2024-01-26T19:19:28.777Z,2.49
2024-01-26T19:21:56.512Z,2.47
2024-01-26T19:24:24.468Z,2.44
2024-01-26T19:26:52.493Z,2.48
2024-01-26T19:29:19.528Z,2.67
2024-01-26T19:31:48.481Z,2.82
2024-01-26T19:34:15.693Z,2.67
2024-01-26T19:36:43.702Z,2.65
2024-01-26T19:39:12.987Z,2.50
2024-01-26T19:41:40.065Z,2.68
2024-01-26T19:44:07.244Z,2.70
2024-01-26T19:46:34.231Z,2.57
2024-01-26T19:49:01.397Z,2.44
2024-01-26T19:51:28.529Z,2.88
2024-01-26T19:53:55.553Z,2.82
2024-01-26T19:56:22.481Z,2.73
2024-01-26T19:58:49.404Z,2.69
2024-01-26T20:01:17.995Z,2.59
2024-01-26T20:03:45.945Z,2.68
2024-01-26T20:06:14.824Z,2.67
2024-01-26T20:08:43.756Z,2.69
2024-01-26T20:11:11.040Z,2.61
2024-01-26T20:13:38.389Z,2.57
2024-01-26T20:16:10.412Z,2.64
2024-01-26T20:18:38.321Z,2.67
2024-01-26T20:21:08.421Z,2.79
2024-01-26T20:23:36.442Z,2.53
2024-01-26T20:26:07.349Z,2.63
2024-01-26T20:28:34.612Z,2.75
2024-01-26T20:31:01.611Z,2.64
2024-01-26T20:33:28.880Z,2.66
2024-01-26T20:35:56.430Z,2.55
2024-01-26T20:38:23.374Z,2.73
2024-01-26T20:40:50.370Z,2.44
2024-01-26T20:43:18.789Z,2.44
2024-01-26T20:45:48.005Z,2.59
2024-01-26T20:48:18.549Z,2.40
2024-01-26T20:50:45.711Z,2.26
2024-01-26T20:53:12.866Z,2.28
2024-01-26T20:55:39.735Z,2.22
2024-01-26T20:58:06.816Z,2.22
2024-01-26T21:00:34.111Z,2.35
2024-01-26T21:03:01.309Z,2.31
2024-01-26T21:05:32.989Z,2.18
2024-01-26T21:08:01.624Z,2.16
2024-01-26T21:10:29.528Z,2.07
2024-01-26T21:12:57.266Z,2.08
2024-01-26T21:15:25.178Z,2.01
2024-01-26T21:17:52.332Z,1.96
2024-01-26T21:20:19.609Z,1.95
2024-01-26T21:22:54.262Z,1.92
2024-01-26T21:25:21.406Z,1.90
2024-01-26T21:27:49.803Z,1.91
2024-01-26T21:30:17.146Z,1.90
2024-01-26T21:32:44.415Z,1.87
2024-01-26T21:35:13.182Z,1.86
2024-01-26T21:37:42.782Z,1.85
2024-01-26T21:40:10.629Z,1.90
2024-01-26T21:42:38.056Z,1.91
2024-01-26T21:45:05.702Z,1.92
2024-01-26T21:47:33.090Z,1.96
2024-01-26T21:50:00.379Z,1.93
2024-01-26T21:52:28.018Z,1.91
2024-01-26T21:54:55.535Z,1.92
2024-01-26T21:57:22.896Z,2.07
2024-01-26T21:59:52.206Z,1.96
2024-01-26T22:02:21.289Z,1.94
2024-01-26T22:04:48.500Z,1.93
2024-01-26T22:07:15.607Z,1.89
2024-01-26T22:09:45.442Z,1.89
2024-01-26T22:12:12.786Z,1.86
2024-01-26T22:14:39.761Z,1.84
2024-01-26T22:17:06.713Z,1.82
2024-01-26T22:19:33.795Z,1.82
2024-01-26T22:22:00.766Z,1.85
2024-01-26T22:24:27.667Z,1.88
2024-01-26T22:26:54.725Z,1.86
2024-01-26T22:29:21.705Z,1.88
2024-01-26T22:31:48.724Z,1.85
2024-01-26T22:34:15.791Z,1.83
2024-01-26T22:36:42.760Z,1.97
2024-01-26T22:39:10.026Z,1.93
2024-01-26T22:41:37.038Z,1.88
2024-01-26T22:44:05.515Z,1.84
2024-01-26T22:46:33.276Z,1.82
2024-01-26T22:49:00.263Z,1.81
2024-01-26T22:51:27.332Z,1.80
2024-01-26T22:53:54.286Z,1.88
2024-01-26T22:56:21.277Z,1.97
2024-01-26T22:58:48.319Z,2.06
2024-01-26T23:01:15.282Z,2.11
2024-01-26T23:03:42.487Z,2.07
2024-01-26T23:06:15.598Z,2.36
2024-01-26T23:08:44.720Z,2.21
2024-01-26T23:11:11.715Z,2.10
2024-01-26T23:13:38.635Z,2.13
2024-01-26T23:16:06.080Z,2.30
2024-01-26T23:18:33.217Z,2.16
2024-01-26T23:21:01.794Z,2.29
2024-01-26T23:23:28.902Z,2.13
2024-01-26T23:25:57.841Z,2.06
2024-01-26T23:28:25.265Z,2.22
2024-01-26T23:30:52.161Z,2.23
2024-01-26T23:33:19.286Z,2.11
2024-01-26T23:35:46.493Z,2.03
2024-01-26T23:38:13.491Z,1.93
2024-01-26T23:40:40.536Z,2.06
2024-01-26T23:43:07.583Z,2.07
2024-01-26T23:45:34.520Z,2.02
2024-01-26T23:48:01.598Z,1.91
2024-01-26T23:50:28.629Z,2.02
2024-01-26T23:52:55.521Z,1.96
2024-01-26T23:55:22.431Z,1.79
2024-01-26T23:57:49.607Z,1.78
